sensor_id;sensor_type;location;lat;lon;timestamp;P1;durP1;ratioP1;P2;durP2;ratioP2
32932;SDS011;19444;50.518;10.870;2022-10-29T00:00:33;10.38;;;5.30;;
32932;SDS011;19444;50.518;10.870;2022-10-29T00:03:30;14.07;;;5.22;;
32932;SDS011;19444;50.518;10.870;2022-10-29T00:06:27;15.43;;;4.65;;
32932;SDS011;19444;50.518;10.870;2022-10-29T00:09:24;10.45;;;5.18;;
32932;SDS011;19444;50.518;10.870;2022-10-29T00:12:20;10.07;;;4.50;;
32932;SDS011;19444;50.518;10.870;2022-10-29T00:15:17;10.95;;;4.68;;
32932;SDS011;19444;50.518;10.870;2022-10-29T00:18:14;11.23;;;5.68;;
32932;SDS011;19444;50.518;10.870;2022-10-29T00:21:14;12.13;;;5.00;;
32932;SDS011;19444;50.518;10.870;2022-10-29T00:24:14;15.32;;;4.35;;
32932;SDS011;19444;50.518;10.870;2022-10-29T00:27:12;11.32;;;4.95;;
32932;SDS011;19444;50.518;10.870;2022-10-29T00:30:09;12.70;;;5.22;;
32932;SDS011;19444;50.518;10.870;2022-10-29T00:33:07;12.02;;;5.30;;
32932;SDS011;19444;50.518;10.870;2022-10-29T00:36:05;12.00;;;5.07;;
32932;SDS011;19444;50.518;10.870;2022-10-29T00:39:10;13.55;;;5.32;;
32932;SDS011;19444;50.518;10.870;2022-10-29T00:42:12;12.02;;;5.65;;
32932;SDS011;19444;50.518;10.870;2022-10-29T00:45:18;10.38;;;4.95;;
32932;SDS011;19444;50.518;10.870;2022-10-29T00:48:16;12.48;;;5.20;;
32932;SDS011;19444;50.518;10.870;2022-10-29T00:51:13;14.43;;;5.47;;
32932;SDS011;19444;50.518;10.870;2022-10-29T00:54:12;13.02;;;5.00;;
32932;SDS011;19444;50.518;10.870;2022-10-29T00:57:33;13.27;;;5.78;;
32932;SDS011;19444;50.518;10.870;2022-10-29T01:00:34;11.05;;;5.75;;
32932;SDS011;19444;50.518;10.870;2022-10-29T01:03:30;17.52;;;5.50;;
32932;SDS011;19444;50.518;10.870;2022-10-29T01:06:27;9.02;;;4.68;;
32932;SDS011;19444;50.518;10.870;2022-10-29T01:09:26;11.07;;;5.40;;
32932;SDS011;19444;50.518;10.870;2022-10-29T01:18:58;14.48;;;5.57;;
32932;SDS011;19444;50.518;10.870;2022-10-29T01:22:24;10.82;;;5.35;;
32932;SDS011;19444;50.518;10.870;2022-10-29T01:29:26;19.83;;;5.68;;
32932;SDS011;19444;50.518;10.870;2022-10-29T01:32:34;14.25;;;5.43;;
32932;SDS011;19444;50.518;10.870;2022-10-29T01:42:39;10.93;;;5.40;;
32932;SDS011;19444;50.518;10.870;2022-10-29T01:45:49;13.38;;;4.72;;
32932;SDS011;19444;50.518;10.870;2022-10-29T01:48:52;12.40;;;4.97;;
32932;SDS011;19444;50.518;10.870;2022-10-29T01:51:57;10.45;;;4.25;;
32932;SDS011;19444;50.518;10.870;2022-10-29T01:54:58;13.23;;;5.13;;
32932;SDS011;19444;50.518;10.870;2022-10-29T01:57:55;13.50;;;4.88;;
32932;SDS011;19444;50.518;10.870;2022-10-29T02:04:38;8.82;;;4.05;;
32932;SDS011;19444;50.518;10.870;2022-10-29T02:07:50;9.48;;;5.07;;
32932;SDS011;19444;50.518;10.870;2022-10-29T02:11:02;8.60;;;4.20;;
32932;SDS011;19444;50.518;10.870;2022-10-29T02:14:28;9.88;;;4.35;;
32932;SDS011;19444;50.518;10.870;2022-10-29T02:17:33;9.90;;;3.85;;
32932;SDS011;19444;50.518;10.870;2022-10-29T02:20:31;10.05;;;4.38;;
32932;SDS011;19444;50.518;10.870;2022-10-29T02:23:27;10.82;;;4.35;;
32932;SDS011;19444;50.518;10.870;2022-10-29T02:26:24;9.38;;;4.53;;
32932;SDS011;19444;50.518;10.870;2022-10-29T02:29:21;12.20;;;4.35;;
32932;SDS011;19444;50.518;10.870;2022-10-29T02:32:18;12.25;;;4.65;;
32932;SDS011;19444;50.518;10.870;2022-10-29T02:35:15;8.90;;;4.13;;
32932;SDS011;19444;50.518;10.870;2022-10-29T02:38:12;11.50;;;5.53;;
32932;SDS011;19444;50.518;10.870;2022-10-29T02:41:09;14.15;;;4.60;;
32932;SDS011;19444;50.518;10.870;2022-10-29T02:44:05;12.57;;;5.60;;
32932;SDS011;19444;50.518;10.870;2022-10-29T02:47:02;11.23;;;4.50;;
32932;SDS011;19444;50.518;10.870;2022-10-29T02:49:59;6.45;;;3.70;;
32932;SDS011;19444;50.518;10.870;2022-10-29T02:52:56;9.20;;;3.42;;
32932;SDS011;19444;50.518;10.870;2022-10-29T02:55:53;9.43;;;4.22;;
32932;SDS011;19444;50.518;10.870;2022-10-29T02:58:50;8.63;;;3.72;;
32932;SDS011;19444;50.518;10.870;2022-10-29T03:01:47;8.85;;;3.90;;
32932;SDS011;19444;50.518;10.870;2022-10-29T03:04:44;8.65;;;4.28;;
32932;SDS011;19444;50.518;10.870;2022-10-29T03:07:41;9.25;;;3.97;;
32932;SDS011;19444;50.518;10.870;2022-10-29T03:10:38;11.35;;;4.32;;
32932;SDS011;19444;50.518;10.870;2022-10-29T03:13:35;10.23;;;4.05;;
32932;SDS011;19444;50.518;10.870;2022-10-29T03:16:33;10.70;;;4.78;;
32932;SDS011;19444;50.518;10.870;2022-10-29T03:19:30;8.52;;;3.60;;
32932;SDS011;19444;50.518;10.870;2022-10-29T03:22:26;11.90;;;4.05;;
32932;SDS011;19444;50.518;10.870;2022-10-29T03:25:23;10.45;;;4.55;;
32932;SDS011;19444;50.518;10.870;2022-10-29T03:28:21;15.55;;;5.53;;
32932;SDS011;19444;50.518;10.870;2022-10-29T03:31:19;12.02;;;5.05;;
32932;SDS011;19444;50.518;10.870;2022-10-29T03:34:16;12.65;;;4.85;;
32932;SDS011;19444;50.518;10.870;2022-10-29T03:37:13;9.02;;;3.85;;
32932;SDS011;19444;50.518;10.870;2022-10-29T03:40:09;8.27;;;4.22;;
32932;SDS011;19444;50.518;10.870;2022-10-29T03:43:06;12.40;;;3.92;;
32932;SDS011;19444;50.518;10.870;2022-10-29T03:46:03;17.00;;;4.95;;
32932;SDS011;19444;50.518;10.870;2022-10-29T03:49:01;9.50;;;4.57;;
32932;SDS011;19444;50.518;10.870;2022-10-29T03:51:58;9.55;;;4.65;;
32932;SDS011;19444;50.518;10.870;2022-10-29T03:54:55;12.68;;;4.00;;
32932;SDS011;19444;50.518;10.870;2022-10-29T03:57:52;11.57;;;4.25;;
32932;SDS011;19444;50.518;10.870;2022-10-29T04:00:53;7.50;;;3.53;;
32932;SDS011;19444;50.518;10.870;2022-10-29T04:03:58;16.02;;;4.82;;
32932;SDS011;19444;50.518;10.870;2022-10-29T04:06:54;9.45;;;3.70;;
32932;SDS011;19444;50.518;10.870;2022-10-29T04:09:51;14.18;;;3.90;;
32932;SDS011;19444;50.518;10.870;2022-10-29T04:12:48;14.15;;;3.80;;
32932;SDS011;19444;50.518;10.870;2022-10-29T04:15:45;8.23;;;3.63;;
32932;SDS011;19444;50.518;10.870;2022-10-29T04:18:42;12.63;;;4.13;;
32932;SDS011;19444;50.518;10.870;2022-10-29T04:21:41;14.80;;;4.57;;
32932;SDS011;19444;50.518;10.870;2022-10-29T04:24:58;9.80;;;3.83;;
32932;SDS011;19444;50.518;10.870;2022-10-29T04:28:14;8.70;;;4.15;;
32932;SDS011;19444;50.518;10.870;2022-10-29T04:31:31;8.77;;;4.40;;
32932;SDS011;19444;50.518;10.870;2022-10-29T04:34:28;11.02;;;3.85;;
32932;SDS011;19444;50.518;10.870;2022-10-29T04:37:27;9.13;;;3.90;;
32932;SDS011;19444;50.518;10.870;2022-10-29T04:40:24;11.70;;;4.05;;
32932;SDS011;19444;50.518;10.870;2022-10-29T04:43:21;11.30;;;4.18;;
32932;SDS011;19444;50.518;10.870;2022-10-29T04:46:18;8.15;;;3.78;;
32932;SDS011;19444;50.518;10.870;2022-10-29T04:49:15;11.52;;;4.20;;
32932;SDS011;19444;50.518;10.870;2022-10-29T04:52:12;11.90;;;3.95;;
32932;SDS011;19444;50.518;10.870;2022-10-29T04:55:09;10.45;;;4.60;;
32932;SDS011;19444;50.518;10.870;2022-10-29T04:58:06;10.25;;;4.65;;
32932;SDS011;19444;50.518;10.870;2022-10-29T05:01:10;16.70;;;7.97;;
32932;SDS011;19444;50.518;10.870;2022-10-29T05:04:07;17.58;;;8.18;;
32932;SDS011;19444;50.518;10.870;2022-10-29T05:07:04;12.00;;;5.80;;
32932;SDS011;19444;50.518;10.870;2022-10-29T05:10:01;13.57;;;6.43;;
32932;SDS011;19444;50.518;10.870;2022-10-29T05:12:58;13.25;;;4.80;;
32932;SDS011;19444;50.518;10.870;2022-10-29T05:16:05;9.35;;;4.40;;
32932;SDS011;19444;50.518;10.870;2022-10-29T05:19:02;11.18;;;5.00;;
32932;SDS011;19444;50.518;10.870;2022-10-29T05:22:00;12.68;;;5.07;;
32932;SDS011;19444;50.518;10.870;2022-10-29T05:24:57;10.68;;;5.55;;
32932;SDS011;19444;50.518;10.870;2022-10-29T05:28:00;10.85;;;6.28;;
32932;SDS011;19444;50.518;10.870;2022-10-29T05:31:02;9.52;;;6.03;;
32932;SDS011;19444;50.518;10.870;2022-10-29T05:34:00;13.18;;;4.93;;
32932;SDS011;19444;50.518;10.870;2022-10-29T05:36:56;9.07;;;5.22;;
32932;SDS011;19444;50.518;10.870;2022-10-29T05:39:53;6.45;;;4.95;;
32932;SDS011;19444;50.518;10.870;2022-10-29T05:42:50;14.27;;;4.47;;
32932;SDS011;19444;50.518;10.870;2022-10-29T05:45:47;13.57;;;5.35;;
32932;SDS011;19444;50.518;10.870;2022-10-29T05:48:44;11.45;;;4.95;;
32932;SDS011;19444;50.518;10.870;2022-10-29T05:51:41;6.90;;;4.57;;
32932;SDS011;19444;50.518;10.870;2022-10-29T05:54:38;9.00;;;4.43;;
32932;SDS011;19444;50.518;10.870;2022-10-29T05:57:35;9.23;;;5.40;;
32932;SDS011;19444;50.518;10.870;2022-10-29T06:00:33;11.52;;;5.32;;
32932;SDS011;19444;50.518;10.870;2022-10-29T06:03:32;13.75;;;4.75;;
32932;SDS011;19444;50.518;10.870;2022-10-29T06:06:29;12.88;;;5.75;;
32932;SDS011;19444;50.518;10.870;2022-10-29T06:09:26;10.75;;;7.15;;
32932;SDS011;19444;50.518;10.870;2022-10-29T06:12:23;9.57;;;5.88;;
32932;SDS011;19444;50.518;10.870;2022-10-29T06:15:20;13.35;;;6.82;;
32932;SDS011;19444;50.518;10.870;2022-10-29T06:18:18;17.95;;;7.53;;
32932;SDS011;19444;50.518;10.870;2022-10-29T06:21:15;13.68;;;6.63;;
32932;SDS011;19444;50.518;10.870;2022-10-29T06:24:11;13.57;;;8.25;;
32932;SDS011;19444;50.518;10.870;2022-10-29T06:27:08;18.55;;;10.10;;
32932;SDS011;19444;50.518;10.870;2022-10-29T06:30:06;19.95;;;10.18;;
32932;SDS011;19444;50.518;10.870;2022-10-29T06:33:04;18.75;;;11.40;;
32932;SDS011;19444;50.518;10.870;2022-10-29T06:36:01;26.42;;;15.82;;
32932;SDS011;19444;50.518;10.870;2022-10-29T06:38:58;19.08;;;11.52;;
32932;SDS011;19444;50.518;10.870;2022-10-29T06:41:55;15.77;;;9.32;;
32932;SDS011;19444;50.518;10.870;2022-10-29T06:44:52;35.28;;;19.83;;
32932;SDS011;19444;50.518;10.870;2022-10-29T06:47:48;29.35;;;17.27;;
32932;SDS011;19444;50.518;10.870;2022-10-29T06:50:45;19.80;;;11.55;;
32932;SDS011;19444;50.518;10.870;2022-10-29T06:53:42;18.08;;;11.10;;
32932;SDS011;19444;50.518;10.870;2022-10-29T06:56:39;73.85;;;37.83;;
32932;SDS011;19444;50.518;10.870;2022-10-29T06:59:36;38.08;;;20.75;;
32932;SDS011;19444;50.518;10.870;2022-10-29T07:02:33;18.30;;;10.18;;
32932;SDS011;19444;50.518;10.870;2022-10-29T07:05:30;16.55;;;8.75;;
32932;SDS011;19444;50.518;10.870;2022-10-29T07:08:28;22.73;;;10.55;;
32932;SDS011;19444;50.518;10.870;2022-10-29T07:11:25;15.05;;;8.48;;
32932;SDS011;19444;50.518;10.870;2022-10-29T07:14:22;20.33;;;9.23;;
32932;SDS011;19444;50.518;10.870;2022-10-29T07:17:19;17.70;;;9.63;;
32932;SDS011;19444;50.518;10.870;2022-10-29T07:20:16;20.95;;;9.80;;
32932;SDS011;19444;50.518;10.870;2022-10-29T07:23:13;17.95;;;8.63;;
32932;SDS011;19444;50.518;10.870;2022-10-29T07:26:10;18.63;;;7.35;;
32932;SDS011;19444;50.518;10.870;2022-10-29T07:29:06;17.75;;;8.10;;
32932;SDS011;19444;50.518;10.870;2022-10-29T07:32:03;15.88;;;9.55;;
32932;SDS011;19444;50.518;10.870;2022-10-29T07:35:00;15.82;;;9.45;;
32932;SDS011;19444;50.518;10.870;2022-10-29T07:38:01;19.63;;;8.77;;
32932;SDS011;19444;50.518;10.870;2022-10-29T07:41:05;14.88;;;6.65;;
32932;SDS011;19444;50.518;10.870;2022-10-29T07:44:02;15.57;;;6.80;;
32932;SDS011;19444;50.518;10.870;2022-10-29T07:46:59;14.43;;;8.02;;
32932;SDS011;19444;50.518;10.870;2022-10-29T07:49:58;13.02;;;7.07;;
32932;SDS011;19444;50.518;10.870;2022-10-29T07:52:57;14.02;;;7.32;;
32932;SDS011;19444;50.518;10.870;2022-10-29T07:55:56;12.75;;;6.68;;
32932;SDS011;19444;50.518;10.870;2022-10-29T07:58:53;15.73;;;6.57;;
32932;SDS011;19444;50.518;10.870;2022-10-29T08:01:50;16.45;;;8.02;;
32932;SDS011;19444;50.518;10.870;2022-10-29T08:04:47;13.07;;;6.72;;
32932;SDS011;19444;50.518;10.870;2022-10-29T08:07:44;13.25;;;7.28;;
32932;SDS011;19444;50.518;10.870;2022-10-29T08:10:40;12.68;;;6.82;;
32932;SDS011;19444;50.518;10.870;2022-10-29T08:13:37;11.82;;;6.88;;
32932;SDS011;19444;50.518;10.870;2022-10-29T08:16:34;10.80;;;7.35;;
32932;SDS011;19444;50.518;10.870;2022-10-29T08:19:31;20.40;;;11.27;;
32932;SDS011;19444;50.518;10.870;2022-10-29T08:22:29;14.55;;;8.43;;
32932;SDS011;19444;50.518;10.870;2022-10-29T08:25:26;15.50;;;7.65;;
32932;SDS011;19444;50.518;10.870;2022-10-29T08:28:23;17.60;;;7.97;;
32932;SDS011;19444;50.518;10.870;2022-10-29T08:31:21;27.20;;;11.48;;
32932;SDS011;19444;50.518;10.870;2022-10-29T08:34:18;15.95;;;8.98;;
32932;SDS011;19444;50.518;10.870;2022-10-29T08:37:14;28.30;;;11.35;;
32932;SDS011;19444;50.518;10.870;2022-10-29T08:40:26;157.65;;;18.98;;
32932;SDS011;19444;50.518;10.870;2022-10-29T08:43:33;85.25;;;24.52;;
32932;SDS011;19444;50.518;10.870;2022-10-29T08:47:15;26.23;;;10.60;;
32932;SDS011;19444;50.518;10.870;2022-10-29T08:50:26;15.40;;;6.57;;
32932;SDS011;19444;50.518;10.870;2022-10-29T08:53:46;12.63;;;6.13;;
32932;SDS011;19444;50.518;10.870;2022-10-29T08:57:09;13.17;;;5.93;;
32932;SDS011;19444;50.518;10.870;2022-10-29T09:03:21;11.40;;;5.40;;
32932;SDS011;19444;50.518;10.870;2022-10-29T09:06:22;15.38;;;6.78;;
32932;SDS011;19444;50.518;10.870;2022-10-29T09:09:52;16.60;;;7.95;;
32932;SDS011;19444;50.518;10.870;2022-10-29T09:23:29;8.27;;;3.80;;
32932;SDS011;19444;50.518;10.870;2022-10-29T09:30:24;16.75;;;4.20;;
32932;SDS011;19444;50.518;10.870;2022-10-29T09:33:26;7.22;;;3.83;;
32932;SDS011;19444;50.518;10.870;2022-10-29T09:36:24;8.00;;;4.00;;
32932;SDS011;19444;50.518;10.870;2022-10-29T09:39:24;9.70;;;3.97;;
32932;SDS011;19444;50.518;10.870;2022-10-29T09:42:36;10.25;;;4.47;;
32932;SDS011;19444;50.518;10.870;2022-10-29T09:45:41;13.65;;;4.70;;
32932;SDS011;19444;50.518;10.870;2022-10-29T09:52:32;9.20;;;4.38;;
32932;SDS011;19444;50.518;10.870;2022-10-29T09:55:36;11.70;;;6.10;;
32932;SDS011;19444;50.518;10.870;2022-10-29T09:58:40;13.00;;;6.15;;
32932;SDS011;19444;50.518;10.870;2022-10-29T10:01:41;9.75;;;4.90;;
32932;SDS011;19444;50.518;10.870;2022-10-29T10:04:39;9.77;;;4.38;;
32932;SDS011;19444;50.518;10.870;2022-10-29T10:07:41;10.02;;;5.00;;
32932;SDS011;19444;50.518;10.870;2022-10-29T10:14:04;14.55;;;4.70;;
32932;SDS011;19444;50.518;10.870;2022-10-29T10:17:15;13.70;;;3.97;;
32932;SDS011;19444;50.518;10.870;2022-10-29T10:20:25;9.27;;;4.40;;
32932;SDS011;19444;50.518;10.870;2022-10-29T10:26:37;10.75;;;4.55;;
32932;SDS011;19444;50.518;10.870;2022-10-29T10:29:38;12.23;;;4.10;;
32932;SDS011;19444;50.518;10.870;2022-10-29T10:32:35;11.95;;;4.40;;
32932;SDS011;19444;50.518;10.870;2022-10-29T10:35:32;12.75;;;5.15;;
32932;SDS011;19444;50.518;10.870;2022-10-29T10:38:38;12.80;;;5.10;;
32932;SDS011;19444;50.518;10.870;2022-10-29T10:41:39;9.40;;;3.17;;
32932;SDS011;19444;50.518;10.870;2022-10-29T10:44:40;11.93;;;4.03;;
32932;SDS011;19444;50.518;10.870;2022-10-29T10:47:49;9.98;;;3.60;;
32932;SDS011;19444;50.518;10.870;2022-10-29T10:51:09;10.90;;;5.05;;
32932;SDS011;19444;50.518;10.870;2022-10-29T10:57:39;9.95;;;3.65;;
32932;SDS011;19444;50.518;10.870;2022-10-29T11:00:50;8.82;;;3.10;;
32932;SDS011;19444;50.518;10.870;2022-10-29T11:04:19;9.05;;;3.63;;
32932;SDS011;19444;50.518;10.870;2022-10-29T11:07:26;9.40;;;3.97;;
32932;SDS011;19444;50.518;10.870;2022-10-29T11:10:30;10.35;;;4.10;;
32932;SDS011;19444;50.518;10.870;2022-10-29T11:13:57;7.72;;;3.92;;
32932;SDS011;19444;50.518;10.870;2022-10-29T11:17:00;10.02;;;3.90;;
32932;SDS011;19444;50.518;10.870;2022-10-29T11:20:04;11.82;;;3.53;;
32932;SDS011;19444;50.518;10.870;2022-10-29T11:26:31;7.85;;;3.80;;
32932;SDS011;19444;50.518;10.870;2022-10-29T11:30:03;8.07;;;4.07;;
32932;SDS011;19444;50.518;10.870;2022-10-29T11:33:08;9.45;;;4.30;;
32932;SDS011;19444;50.518;10.870;2022-10-29T11:36:40;12.30;;;4.43;;
32932;SDS011;19444;50.518;10.870;2022-10-29T11:43:19;12.75;;;4.47;;
32932;SDS011;19444;50.518;10.870;2022-10-29T11:56:47;9.40;;;4.20;;
32932;SDS011;19444;50.518;10.870;2022-10-29T12:00:00;8.15;;;4.18;;
32932;SDS011;19444;50.518;10.870;2022-10-29T12:03:33;6.90;;;3.33;;
32932;SDS011;19444;50.518;10.870;2022-10-29T12:17:36;8.85;;;2.92;;
32932;SDS011;19444;50.518;10.870;2022-10-29T12:28:03;9.13;;;4.88;;
32932;SDS011;19444;50.518;10.870;2022-10-29T12:31:18;10.32;;;4.28;;
32932;SDS011;19444;50.518;10.870;2022-10-29T12:37:48;10.40;;;3.67;;
32932;SDS011;19444;50.518;10.870;2022-10-29T12:41:05;7.50;;;3.58;;
32932;SDS011;19444;50.518;10.870;2022-10-29T12:45:19;13.73;;;4.03;;
32932;SDS011;19444;50.518;10.870;2022-10-29T12:48:33;11.93;;;4.10;;
32932;SDS011;19444;50.518;10.870;2022-10-29T12:51:47;10.88;;;4.38;;
32932;SDS011;19444;50.518;10.870;2022-10-29T12:54:59;13.73;;;4.50;;
32932;SDS011;19444;50.518;10.870;2022-10-29T12:58:20;10.40;;;3.78;;
32932;SDS011;19444;50.518;10.870;2022-10-29T13:01:45;15.85;;;4.90;;
32932;SDS011;19444;50.518;10.870;2022-10-29T13:11:01;7.95;;;3.90;;
32932;SDS011;19444;50.518;10.870;2022-10-29T13:17:34;14.57;;;4.47;;
32932;SDS011;19444;50.518;10.870;2022-10-29T13:20:36;8.20;;;4.05;;
32932;SDS011;19444;50.518;10.870;2022-10-29T13:23:41;10.18;;;5.28;;
32932;SDS011;19444;50.518;10.870;2022-10-29T13:27:04;10.43;;;4.75;;
32932;SDS011;19444;50.518;10.870;2022-10-29T13:30:28;13.82;;;3.72;;
32932;SDS011;19444;50.518;10.870;2022-10-29T13:39:18;13.05;;;4.82;;
32932;SDS011;19444;50.518;10.870;2022-10-29T13:42:16;15.10;;;5.47;;
32932;SDS011;19444;50.518;10.870;2022-10-29T13:45:13;10.20;;;4.43;;
32932;SDS011;19444;50.518;10.870;2022-10-29T13:48:12;9.82;;;4.13;;
32932;SDS011;19444;50.518;10.870;2022-10-29T13:51:23;12.95;;;4.05;;
32932;SDS011;19444;50.518;10.870;2022-10-29T14:04:30;12.73;;;4.03;;
32932;SDS011;19444;50.518;10.870;2022-10-29T14:07:34;11.48;;;4.20;;
32932;SDS011;19444;50.518;10.870;2022-10-29T14:10:53;9.25;;;3.55;;
32932;SDS011;19444;50.518;10.870;2022-10-29T14:13:58;5.90;;;2.88;;
32932;SDS011;19444;50.518;10.870;2022-10-29T14:17:14;7.72;;;3.25;;
32932;SDS011;19444;50.518;10.870;2022-10-29T14:20:21;10.48;;;3.47;;
32932;SDS011;19444;50.518;10.870;2022-10-29T14:23:24;7.13;;;2.50;;
32932;SDS011;19444;50.518;10.870;2022-10-29T14:26:22;9.93;;;3.03;;
32932;SDS011;19444;50.518;10.870;2022-10-29T14:29:20;9.40;;;3.13;;
32932;SDS011;19444;50.518;10.870;2022-10-29T14:32:19;7.18;;;3.88;;
32932;SDS011;19444;50.518;10.870;2022-10-29T14:35:17;10.73;;;3.40;;
32932;SDS011;19444;50.518;10.870;2022-10-29T14:38:16;12.50;;;3.67;;
32932;SDS011;19444;50.518;10.870;2022-10-29T14:41:16;15.45;;;3.80;;
32932;SDS011;19444;50.518;10.870;2022-10-29T14:44:24;9.18;;;3.65;;
32932;SDS011;19444;50.518;10.870;2022-10-29T14:50:46;7.97;;;2.93;;
32932;SDS011;19444;50.518;10.870;2022-10-29T14:53:45;9.07;;;3.28;;
32932;SDS011;19444;50.518;10.870;2022-10-29T14:56:53;10.32;;;3.40;;
32932;SDS011;19444;50.518;10.870;2022-10-29T14:59:55;8.15;;;3.80;;
32932;SDS011;19444;50.518;10.870;2022-10-29T15:02:59;10.68;;;5.68;;
32932;SDS011;19444;50.518;10.870;2022-10-29T15:06:14;14.80;;;7.70;;
32932;SDS011;19444;50.518;10.870;2022-10-29T15:09:20;12.55;;;6.65;;
32932;SDS011;19444;50.518;10.870;2022-10-29T15:12:24;26.17;;;5.53;;
32932;SDS011;19444;50.518;10.870;2022-10-29T15:15:30;11.48;;;5.43;;
32932;SDS011;19444;50.518;10.870;2022-10-29T15:18:27;11.18;;;4.13;;
32932;SDS011;19444;50.518;10.870;2022-10-29T15:21:29;19.23;;;7.32;;
32932;SDS011;19444;50.518;10.870;2022-10-29T15:24:28;19.38;;;7.47;;
32932;SDS011;19444;50.518;10.870;2022-10-29T15:27:25;12.85;;;7.05;;
32932;SDS011;19444;50.518;10.870;2022-10-29T15:30:30;11.32;;;4.65;;
32932;SDS011;19444;50.518;10.870;2022-10-29T15:33:30;13.48;;;5.38;;
32932;SDS011;19444;50.518;10.870;2022-10-29T15:36:42;13.15;;;5.72;;
32932;SDS011;19444;50.518;10.870;2022-10-29T15:39:58;11.45;;;6.43;;
32932;SDS011;19444;50.518;10.870;2022-10-29T15:43:24;14.18;;;5.30;;
32932;SDS011;19444;50.518;10.870;2022-10-29T15:46:26;34.80;;;18.25;;
32932;SDS011;19444;50.518;10.870;2022-10-29T15:49:30;24.50;;;9.50;;
32932;SDS011;19444;50.518;10.870;2022-10-29T15:52:31;29.17;;;11.70;;
32932;SDS011;19444;50.518;10.870;2022-10-29T15:55:34;93.38;;;36.22;;
32932;SDS011;19444;50.518;10.870;2022-10-29T15:58:33;51.72;;;23.00;;
32932;SDS011;19444;50.518;10.870;2022-10-29T16:01:30;73.05;;;28.38;;
32932;SDS011;19444;50.518;10.870;2022-10-29T16:04:27;59.13;;;28.88;;
32932;SDS011;19444;50.518;10.870;2022-10-29T16:07:24;46.33;;;20.08;;
32932;SDS011;19444;50.518;10.870;2022-10-29T16:10:21;34.30;;;19.75;;
32932;SDS011;19444;50.518;10.870;2022-10-29T16:13:18;40.65;;;19.13;;
32932;SDS011;19444;50.518;10.870;2022-10-29T16:16:16;28.77;;;12.55;;
32932;SDS011;19444;50.518;10.870;2022-10-29T16:19:16;29.40;;;9.43;;
32932;SDS011;19444;50.518;10.870;2022-10-29T16:22:13;24.45;;;9.18;;
32932;SDS011;19444;50.518;10.870;2022-10-29T16:25:30;44.33;;;17.23;;
32932;SDS011;19444;50.518;10.870;2022-10-29T16:28:27;54.22;;;29.10;;
32932;SDS011;19444;50.518;10.870;2022-10-29T16:31:24;32.92;;;16.23;;
32932;SDS011;19444;50.518;10.870;2022-10-29T16:34:23;128.50;;;58.10;;
32932;SDS011;19444;50.518;10.870;2022-10-29T16:37:20;150.40;;;71.10;;
32932;SDS011;19444;50.518;10.870;2022-10-29T16:40:17;301.48;;;131.48;;
32932;SDS011;19444;50.518;10.870;2022-10-29T16:43:17;195.02;;;90.15;;
32932;SDS011;19444;50.518;10.870;2022-10-29T16:46:15;187.40;;;94.10;;
32932;SDS011;19444;50.518;10.870;2022-10-29T16:49:11;278.92;;;127.40;;
32932;SDS011;19444;50.518;10.870;2022-10-29T16:52:08;239.90;;;105.80;;
32932;SDS011;19444;50.518;10.870;2022-10-29T16:55:05;134.68;;;55.20;;
32932;SDS011;19444;50.518;10.870;2022-10-29T16:58:03;194.30;;;80.00;;
32932;SDS011;19444;50.518;10.870;2022-10-29T17:01:04;162.68;;;76.00;;
32932;SDS011;19444;50.518;10.870;2022-10-29T17:04:03;133.50;;;53.73;;
32932;SDS011;19444;50.518;10.870;2022-10-29T17:07:00;167.30;;;80.70;;
32932;SDS011;19444;50.518;10.870;2022-10-29T17:09:58;132.13;;;66.70;;
32932;SDS011;19444;50.518;10.870;2022-10-29T17:12:54;97.68;;;49.30;;
32932;SDS011;19444;50.518;10.870;2022-10-29T17:15:52;152.60;;;65.65;;
32932;SDS011;19444;50.518;10.870;2022-10-29T17:18:49;358.20;;;129.48;;
32932;SDS011;19444;50.518;10.870;2022-10-29T17:21:47;216.02;;;88.88;;
32932;SDS011;19444;50.518;10.870;2022-10-29T17:24:44;116.55;;;60.35;;
32932;SDS011;19444;50.518;10.870;2022-10-29T17:27:41;120.40;;;57.08;;
32932;SDS011;19444;50.518;10.870;2022-10-29T17:30:38;104.35;;;54.85;;
32932;SDS011;19444;50.518;10.870;2022-10-29T17:33:35;115.22;;;63.17;;
32932;SDS011;19444;50.518;10.870;2022-10-29T17:36:32;127.82;;;69.18;;
32932;SDS011;19444;50.518;10.870;2022-10-29T17:39:32;140.70;;;77.05;;
32932;SDS011;19444;50.518;10.870;2022-10-29T17:42:28;101.53;;;52.85;;
32932;SDS011;19444;50.518;10.870;2022-10-29T17:45:26;110.35;;;61.33;;
32932;SDS011;19444;50.518;10.870;2022-10-29T17:48:23;186.30;;;85.57;;
32932;SDS011;19444;50.518;10.870;2022-10-29T17:51:20;131.82;;;69.78;;
32932;SDS011;19444;50.518;10.870;2022-10-29T17:54:18;106.60;;;62.75;;
32932;SDS011;19444;50.518;10.870;2022-10-29T17:57:16;78.38;;;47.65;;
32932;SDS011;19444;50.518;10.870;2022-10-29T18:00:13;57.90;;;36.55;;
32932;SDS011;19444;50.518;10.870;2022-10-29T18:03:11;67.20;;;40.85;;
32932;SDS011;19444;50.518;10.870;2022-10-29T18:06:09;87.70;;;53.17;;
32932;SDS011;19444;50.518;10.870;2022-10-29T18:09:08;87.35;;;50.67;;
32932;SDS011;19444;50.518;10.870;2022-10-29T18:12:05;91.90;;;43.15;;
32932;SDS011;19444;50.518;10.870;2022-10-29T18:15:02;67.63;;;38.22;;
32932;SDS011;19444;50.518;10.870;2022-10-29T18:18:00;52.17;;;31.70;;
32932;SDS011;19444;50.518;10.870;2022-10-29T18:20:57;69.80;;;36.55;;
32932;SDS011;19444;50.518;10.870;2022-10-29T18:23:54;56.90;;;35.03;;
32932;SDS011;19444;50.518;10.870;2022-10-29T18:26:51;66.13;;;37.38;;
32932;SDS011;19444;50.518;10.870;2022-10-29T18:29:48;63.67;;;35.85;;
32932;SDS011;19444;50.518;10.870;2022-10-29T18:32:45;50.83;;;33.83;;
32932;SDS011;19444;50.518;10.870;2022-10-29T18:35:42;44.08;;;29.75;;
32932;SDS011;19444;50.518;10.870;2022-10-29T18:38:39;38.97;;;24.83;;
32932;SDS011;19444;50.518;10.870;2022-10-29T18:41:36;43.75;;;28.33;;
32932;SDS011;19444;50.518;10.870;2022-10-29T18:44:33;46.22;;;29.20;;
32932;SDS011;19444;50.518;10.870;2022-10-29T18:47:29;49.40;;;25.88;;
32932;SDS011;19444;50.518;10.870;2022-10-29T18:50:26;38.05;;;22.75;;
32932;SDS011;19444;50.518;10.870;2022-10-29T18:53:23;31.25;;;21.73;;
32932;SDS011;19444;50.518;10.870;2022-10-29T18:56:20;27.95;;;18.58;;
32932;SDS011;19444;50.518;10.870;2022-10-29T18:59:18;34.65;;;21.17;;
32932;SDS011;19444;50.518;10.870;2022-10-29T19:02:16;31.60;;;18.20;;
32932;SDS011;19444;50.518;10.870;2022-10-29T19:05:13;33.13;;;19.58;;
32932;SDS011;19444;50.518;10.870;2022-10-29T19:08:11;22.02;;;16.08;;
32932;SDS011;19444;50.518;10.870;2022-10-29T19:11:09;29.80;;;17.90;;
32932;SDS011;19444;50.518;10.870;2022-10-29T19:14:12;31.50;;;17.83;;
32932;SDS011;19444;50.518;10.870;2022-10-29T19:17:09;24.63;;;15.43;;
32932;SDS011;19444;50.518;10.870;2022-10-29T19:20:06;22.23;;;13.35;;
32932;SDS011;19444;50.518;10.870;2022-10-29T19:23:03;24.27;;;15.75;;
32932;SDS011;19444;50.518;10.870;2022-10-29T19:26:01;24.05;;;13.88;;
32932;SDS011;19444;50.518;10.870;2022-10-29T19:29:14;23.98;;;14.38;;
32932;SDS011;19444;50.518;10.870;2022-10-29T19:32:11;29.92;;;16.13;;
32932;SDS011;19444;50.518;10.870;2022-10-29T19:35:08;31.20;;;16.70;;
32932;SDS011;19444;50.518;10.870;2022-10-29T19:38:06;30.27;;;17.48;;